Time;durP1;ratioP1;P1;durP2;ratioP2;P2;SDS_P1;SDS_P2;PMS_P1;PMS_P2;Temp;Humidity;BMP_temperature;BMP_pressure;BME280_temperature;BME280_humidity;BME280_pressure;Samples;Min_cycle;Max_cycle;Signal;HPM_P1;HPM_P2
2022/12/09 00:02:18;;;;;;;10.88;5.18;;;7.00;99.70;;;;;;9715833;30;20116;-65
2022/12/09 00:07:18;;;;;;;10.15;5.80;;;7.30;99.80;;;;;;9712540;30;20451;-64
2022/12/09 00:12:19;;;;;;;11.18;5.25;;;7.00;99.70;;;;;;9716450;30;20038;-65
2022/12/09 00:17:20;;;;;;;9.13;4.57;;;7.00;99.70;;;;;;9714764;30;20052;-65
2022/12/09 00:22:20;;;;;;;11.27;5.18;;;7.00;99.70;;;;;;9716200;30;20041;-65
2022/12/09 00:27:21;;;;;;;10.63;5.15;;;7.00;99.60;;;;;;9714913;30;20045;-64
2022/12/09 00:32:22;;;;;;;12.95;5.70;;;7.00;99.60;;;;;;9716033;30;20053;-65
2022/12/09 00:37:22;;;;;;;12.18;5.28;;;7.00;99.60;;;;;;9714832;30;20771;-63
2022/12/09 00:42:23;;;;;;;12.20;5.45;;;7.00;99.60;;;;;;9714785;30;20082;-65
2022/12/09 00:47:24;;;;;;;11.88;5.68;;;7.00;99.60;;;;;;9715228;30;20483;-63
2022/12/09 00:52:24;;;;;;;14.18;6.28;;;7.20;99.70;;;;;;9714436;30;20532;-64
2022/12/09 00:57:25;;;;;;;13.75;5.57;;;7.00;99.60;;;;;;9712289;30;20071;-63
2022/12/09 01:02:26;;;;;;;11.82;5.20;;;7.00;99.60;;;;;;9739476;25;20104;-65
2022/12/09 01:07:26;;;;;;;11.85;5.28;;;7.20;99.60;;;;;;9713282;30;20033;-63
2022/12/09 01:12:27;;;;;;;12.65;6.05;;;7.10;99.60;;;;;;9713832;30;20045;-63
2022/12/09 01:17:28;;;;;;;10.95;5.35;;;7.20;99.60;;;;;;9714005;30;20052;-64
2022/12/09 01:22:28;;;;;;;11.45;5.38;;;7.30;99.60;;;;;;9712922;30;20038;-64
2022/12/09 01:27:29;;;;;;;13.05;5.80;;;7.00;99.60;;;;;;9713460;30;20034;-65
2022/12/09 01:32:30;;;;;;;11.02;6.07;;;6.90;99.50;;;;;;9714570;30;20640;-63
2022/12/09 01:37:32;;;;;;;11.85;5.90;;;6.90;99.50;;;;;;9713292;30;20049;-62
2022/12/09 01:42:33;;;;;;;13.52;5.28;;;7.00;99.60;;;;;;9713405;30;20163;-64
2022/12/09 01:47:34;;;;;;;10.18;5.15;;;6.90;99.50;;;;;;9715015;30;20037;-63
2022/12/09 01:52:35;;;;;;;9.43;5.18;;;6.90;99.50;;;;;;9712570;30;20042;-62
2022/12/09 01:57:36;;;;;;;11.73;5.55;;;6.90;99.50;;;;;;9712806;30;20074;-63
2022/12/09 02:02:38;;;;;;;11.60;5.60;;;6.90;99.50;;;;;;9709911;30;20053;-62
2022/12/09 02:07:39;;;;;;;10.48;5.18;;;7.30;99.50;;;;;;9711285;30;20112;-62
2022/12/09 02:12:55;;;;;;;8.57;4.53;;;6.90;99.40;;;;;;9710239;30;20056;-62
2022/12/09 02:18:21;;;;;;;9.27;5.03;;;6.90;99.40;;;;;;9711924;30;20167;-62
2022/12/09 02:23:32;;;;;;;9.32;4.75;;;6.90;99.30;;;;;;9683979;30;20038;-62
2022/12/09 02:29:23;;;;;;;10.82;4.20;;;6.90;99.40;;;;;;9709703;30;20542;-62
2022/12/09 02:34:31;;;;;;;8.75;4.32;;;6.90;99.20;;;;;;9686636;30;20408;-65
2022/12/09 02:39:37;;;;;;;8.55;3.85;;;6.90;99.40;;;;;;9709455;30;20041;-64
2022/12/09 02:44:39;;;;;;;6.72;3.80;;;6.90;99.40;;;;;;9710744;30;20096;-64
2022/12/09 02:49:42;;;;;;;8.27;4.15;;;6.90;99.40;;;;;;9711264;30;20061;-65
2022/12/09 02:54:43;;;;;;;8.40;3.90;;;6.80;99.40;;;;;;9710584;30;20080;-64
2022/12/09 02:59:44;;;;;;;7.05;3.90;;;6.90;99.40;;;;;;9710254;30;20129;-64
2022/12/09 03:04:59;;;;;;;9.55;3.90;;;6.80;99.40;;;;;;9709628;30;20057;-64
2022/12/09 03:10:11;;;;;;;6.28;3.47;;;6.80;99.30;;;;;;9709666;30;20038;-65
2022/12/09 03:15:16;;;;;;;8.02;3.60;;;6.80;99.30;;;;;;9709806;30;20045;-64
2022/12/09 03:20:25;;;;;;;7.68;3.75;;;6.80;99.30;;;;;;9709743;30;20473;-65
2022/12/09 03:25:32;;;;;;;7.55;3.58;;;6.80;99.30;;;;;;9708224;30;20037;-65
2022/12/09 03:30:36;;;;;;;5.85;3.47;;;6.80;99.30;;;;;;9712095;30;20033;-65
2022/12/09 03:35:48;;;;;;;7.25;3.95;;;6.80;99.30;;;;;;9707319;30;20049;-64
2022/12/09 03:40:59;;;;;;;6.85;3.42;;;6.80;99.30;;;;;;9709157;30;20110;-65
2022/12/09 03:46:00;;;;;;;7.47;3.65;;;6.80;99.30;;;;;;9708444;30;20076;-64
2022/12/09 03:51:13;;;;;;;7.47;3.35;;;6.80;99.30;;;;;;9710286;30;20129;-62
2022/12/09 03:56:20;;;;;;;6.78;3.60;;;6.80;99.30;;;;;;9708931;30;20056;-63
2022/12/09 04:01:23;;;;;;;6.63;3.53;;;7.00;99.30;;;;;;9708566;30;20030;-64
2022/12/09 04:06:24;;;;;;;8.07;3.60;;;7.00;99.30;;;;;;9708631;30;20471;-64
2022/12/09 04:11:25;;;;;;;6.63;3.45;;;7.00;99.30;;;;;;9708604;30;20026;-62
2022/12/09 04:16:26;;;;;;;6.85;3.30;;;6.80;99.30;;;;;;9707221;30;20088;-64
2022/12/09 04:21:26;;;;;;;6.38;3.70;;;6.70;99.20;;;;;;9708259;30;20044;-62
2022/12/09 04:26:27;;;;;;;6.35;3.38;;;6.80;99.20;;;;;;9708901;30;20488;-63
2022/12/09 04:31:28;;;;;;;7.13;3.58;;;6.70;99.20;;;;;;9709820;30;20095;-62
2022/12/09 04:36:28;;;;;;;7.07;3.35;;;6.80;99.20;;;;;;9711898;30;20045;-62
2022/12/09 04:41:29;;;;;;;7.93;3.83;;;6.90;99.30;;;;;;9714629;30;20037;-64
2022/12/09 04:46:30;;;;;;;7.38;3.25;;;7.00;99.30;;;;;;9715682;30;20042;-63
2022/12/09 04:51:31;;;;;;;7.07;3.78;;;6.70;99.20;;;;;;9712165;30;20493;-62
2022/12/09 04:56:31;;;;;;;7.03;3.70;;;7.30;99.40;;;;;;9714669;30;20056;-62
2022/12/09 05:01:32;;;;;;;9.70;4.30;;;6.60;99.20;;;;;;9714137;30;20052;-62
2022/12/09 05:06:33;;;;;;;9.23;4.20;;;6.60;99.20;;;;;;9713279;30;20544;-62
2022/12/09 05:11:34;;;;;;;8.45;4.30;;;6.60;99.20;;;;;;9714156;30;20041;-62
2022/12/09 05:16:34;;;;;;;7.47;3.60;;;6.60;99.20;;;;;;9713702;30;20080;-62
2022/12/09 05:21:35;;;;;;;9.32;4.57;;;6.60;99.20;;;;;;9714062;30;20034;-62
2022/12/09 05:26:36;;;;;;;8.27;4.07;;;6.60;99.20;;;;;;9714066;30;20048;-64
2022/12/09 05:31:37;;;;;;;8.20;4.18;;;6.80;99.20;;;;;;9710006;30;20048;-63
2022/12/09 05:36:38;;;;;;;9.35;4.85;;;7.20;99.30;;;;;;9712984;30;20504;-65
2022/12/09 05:41:38;;;;;;;9.32;4.72;;;6.50;99.20;;;;;;9712783;30;20033;-65
2022/12/09 05:46:39;;;;;;;8.65;4.32;;;6.50;99.20;;;;;;9709612;30;20120;-63
2022/12/09 05:51:40;;;;;;;11.13;4.72;;;6.50;99.20;;;;;;9710042;30;20049;-64
2022/12/09 05:56:41;;;;;;;9.23;4.72;;;6.50;99.20;;;;;;9709566;30;20048;-65
2022/12/09 06:01:41;;;;;;;8.20;4.50;;;6.40;99.10;;;;;;9712501;30;20030;-64
2022/12/09 06:06:42;;;;;;;8.13;4.78;;;6.60;99.20;;;;;;9710589;30;20045;-64
2022/12/09 06:11:43;;;;;;;10.93;5.03;;;6.40;99.10;;;;;;9712340;30;20400;-62
2022/12/09 06:16:43;;;;;;;9.95;4.47;;;6.40;99.10;;;;;;9711935;30;20412;-63
2022/12/09 06:21:44;;;;;;;9.57;4.50;;;6.50;99.10;;;;;;9711744;30;20034;-63
2022/12/09 06:26:45;;;;;;;11.45;4.78;;;6.40;99.10;;;;;;9708565;30;20046;-63
2022/12/09 06:31:46;;;;;;;11.13;5.45;;;6.40;99.10;;;;;;9696977;30;20052;-64
2022/12/09 06:36:47;;;;;;;12.70;5.88;;;6.30;99.10;;;;;;9711434;30;20054;-62
2022/12/09 06:41:48;;;;;;;10.88;5.38;;;6.60;99.10;;;;;;9711037;30;20045;-62
2022/12/09 06:46:48;;;;;;;11.57;5.57;;;6.30;99.00;;;;;;9711803;30;20528;-63
2022/12/09 06:51:49;;;;;;;11.77;5.40;;;6.40;99.00;;;;;;9710303;30;20381;-65
2022/12/09 06:56:50;;;;;;;11.80;5.55;;;6.30;99.00;;;;;;9708005;30;20516;-62
2022/12/09 07:01:51;;;;;;;11.98;5.70;;;6.30;99.00;;;;;;9702211;30;20045;-64
2022/12/09 07:06:52;;;;;;;12.32;5.50;;;6.30;99.00;;;;;;9707245;30;20305;-63
2022/12/09 07:11:52;;;;;;;12.52;5.68;;;6.50;99.00;;;;;;9708459;30;20112;-62
2022/12/09 07:16:53;;;;;;;14.55;6.43;;;6.30;98.90;;;;;;9708692;30;20492;-62
2022/12/09 07:21:54;;;;;;;14.52;6.78;;;6.30;98.90;;;;;;9703745;30;20037;-62
2022/12/09 07:26:55;;;;;;;13.98;6.32;;;6.20;98.90;;;;;;9705464;30;20132;-62
2022/12/09 07:31:55;;;;;;;13.57;6.43;;;6.30;98.90;;;;;;9689539;30;20033;-62
2022/12/09 07:36:56;;;;;;;17.77;7.30;;;6.30;98.90;;;;;;9704601;30;20373;-62
2022/12/09 07:41:57;;;;;;;15.25;6.80;;;6.50;98.90;;;;;;9704826;30;20567;-61
2022/12/09 07:46:58;;;;;;;14.75;7.43;;;6.30;98.90;;;;;;9703182;30;20489;-62
2022/12/09 07:51:59;;;;;;;16.75;7.57;;;6.30;99.10;;;;;;9705144;30;20034;-61
2022/12/09 07:56:59;;;;;;;17.65;7.82;;;6.20;98.80;;;;;;9706194;30;20579;-61
2022/12/09 08:02:02;;;;;;;17.88;8.65;;;6.20;98.80;;;;;;9690980;30;20041;-61
2022/12/09 08:07:03;;;;;;;17.45;8.80;;;6.30;98.80;;;;;;9638890;30;1187262;-61
2022/12/09 08:12:03;;;;;;;19.77;8.65;;;6.20;98.80;;;;;;9669203;30;20041;-61
2022/12/09 08:17:04;;;;;;;17.88;8.55;;;6.20;98.80;;;;;;9633913;30;20545;-63
2022/12/09 08:22:05;;;;;;;21.90;9.68;;;6.60;98.90;;;;;;9625677;30;20374;-66
2022/12/09 08:27:06;;;;;;;18.23;8.23;;;6.20;98.80;;;;;;9629807;30;20061;-65
2022/12/09 08:32:06;;;;;;;22.02;9.60;;;6.20;98.80;;;;;;9639670;30;20559;-62
2022/12/09 08:37:07;;;;;;;18.50;9.45;;;6.20;98.80;;;;;;9626449;30;20050;-62
2022/12/09 08:42:08;;;;;;;18.98;7.93;;;6.20;98.80;;;;;;9646374;30;20037;-62
2022/12/09 08:47:08;;;;;;;19.65;8.43;;;6.20;98.80;;;;;;9635359;30;20045;-66
2022/12/09 08:52:09;;;;;;;20.17;9.45;;;6.30;98.80;;;;;;9625156;30;20311;-62
2022/12/09 08:57:10;;;;;;;18.30;8.40;;;6.20;98.80;;;;;;9624948;30;20135;-63
2022/12/09 09:02:11;;;;;;;20.33;8.38;;;6.30;98.80;;;;;;9620660;30;20034;-63
2022/12/09 09:07:12;;;;;;;18.10;9.05;;;6.30;98.80;;;;;;9636109;30;20285;-63
2022/12/09 09:12:13;;;;;;;19.55;9.18;;;6.30;98.80;;;;;;9632412;30;20306;-62
2022/12/09 09:17:14;;;;;;;20.55;8.85;;;6.20;98.80;;;;;;9643767;30;20382;-62
2022/12/09 09:22:15;;;;;;;20.90;9.30;;;6.20;98.80;;;;;;9638554;30;20779;-63
2022/12/09 09:27:15;;;;;;;21.52;9.20;;;6.20;98.70;;;;;;9647785;30;20041;-63
2022/12/09 09:32:16;;;;;;;20.20;9.18;;;5.90;98.70;;;;;;9643231;30;20152;-65
2022/12/09 09:37:17;;;;;;;21.05;9.00;;;6.30;98.80;;;;;;9644280;30;20071;-66
2022/12/09 09:42:28;;;;;;;19.30;8.43;;;6.40;98.80;;;;;;9654536;30;20025;-63
2022/12/09 09:47:32;;;;;;;20.90;8.93;;;6.40;98.80;;;;;;9637843;30;20037;-63
2022/12/09 09:52:36;;;;;;;21.40;9.73;;;6.80;98.90;;;;;;9640091;30;20580;-62
2022/12/09 09:58:15;;;;;;;20.48;9.23;;;6.30;98.70;;;;;;9642103;30;20049;-63
2022/12/09 10:03:21;;;;;;;19.33;9.02;;;6.30;98.60;;;;;;9643501;30;20086;-64
2022/12/09 10:08:37;;;;;;;18.88;8.70;;;7.00;98.80;;;;;;9643175;30;20037;-64
2022/12/09 10:13:43;;;;;;;21.65;9.02;;;6.10;98.60;;;;;;9642992;30;20246;-63
2022/12/09 10:19:07;;;;;;;21.23;9.10;;;6.60;98.70;;;;;;9636849;30;20053;-64
2022/12/09 10:24:31;;;;;;;19.98;8.27;;;6.40;98.50;;;;;;9642042;30;20506;-64
2022/12/09 10:30:06;;;;;;;18.70;10.02;;;6.40;98.50;;;;;;9640928;30;20199;-64
2022/12/09 10:35:16;;;;;;;18.05;8.38;;;6.40;98.30;;;;;;9605276;30;20053;-64
2022/12/09 10:40:55;;;;;;;16.85;7.68;;;6.40;98.40;;;;;;9645992;30;20515;-64
2022/12/09 10:45:56;;;;;;;23.73;9.30;;;6.40;98.40;;;;;;9517495;30;20056;-63
2022/12/09 10:51:16;;;;;;;20.20;8.68;;;6.50;98.40;;;;;;9613937;30;20208;-63
2022/12/09 10:56:26;;;;;;;20.08;8.18;;;6.60;98.30;;;;;;9642676;30;20124;-62
2022/12/09 11:01:27;;;;;;;18.98;8.38;;;6.60;98.30;;;;;;9623761;30;20483;-67
2022/12/09 11:06:32;;;;;;;18.92;8.80;;;6.70;98.20;;;;;;9640868;30;20053;-63
2022/12/09 11:11:47;;;;;;;22.77;8.55;;;6.70;98.20;;;;;;9645138;30;20952;-63
2022/12/09 11:16:50;;;;;;;21.05;9.48;;;6.80;98.10;;;;;;9640283;30;20049;-64
2022/12/09 11:21:51;;;;;;;19.42;9.05;;;6.80;98.20;;;;;;9718339;25;20291;-60
2022/12/09 11:26:51;;;;;;;19.88;8.88;;;7.10;98.60;;;;;;9637880;25;20562;-64
2022/12/09 11:31:52;;;;;;;26.73;8.57;;;7.00;98.80;;;;;;9625862;30;20068;-63
2022/12/09 11:36:55;;;;;;;21.30;8.52;;;6.50;98.60;;;;;;9618315;30;20502;-63
2022/12/09 11:42:14;;;;;;;22.58;9.13;;;6.80;98.60;;;;;;9617939;30;20041;-64
2022/12/09 11:47:33;;;;;;;23.05;9.50;;;6.80;98.50;;;;;;9619499;30;20551;-63
2022/12/09 11:52:34;;;;;;;21.20;9.38;;;6.80;98.40;;;;;;9620210;30;20115;-64
2022/12/09 11:57:48;;;;;;;18.95;7.78;;;6.80;98.40;;;;;;9620201;30;20050;-64
2022/12/09 12:02:54;;;;;;;19.00;8.93;;;6.80;98.30;;;;;;9617502;30;20508;-61
2022/12/09 12:08:07;;;;;;;18.58;8.82;;;6.80;98.30;;;;;;9620572;30;20034;-62
2022/12/09 12:13:23;;;;;;;19.63;9.15;;;6.80;98.30;;;;;;9610814;30;20480;-63
2022/12/09 12:18:28;;;;;;;16.25;8.02;;;6.80;98.30;;;;;;9608854;30;20117;-63
2022/12/09 12:23:49;;;;;;;18.38;7.80;;;6.80;98.30;;;;;;9608723;30;20148;-64
2022/12/09 12:29:10;;;;;;;19.77;8.38;;;6.80;98.30;;;;;;9612009;30;20628;-63
2022/12/09 12:34:28;;;;;;;19.27;8.20;;;6.80;98.20;;;;;;9611972;30;20881;-65
2022/12/09 12:39:44;;;;;;;19.20;8.15;;;6.90;98.30;;;;;;9619427;30;20048;-64
2022/12/09 12:50:54;;;;;;;19.08;8.02;;;6.80;98.30;;;;;;9611760;30;20512;-65
2022/12/09 12:56:08;;;;;;;17.75;7.97;;;6.90;98.30;;;;;;9612164;30;20168;-65
2022/12/09 13:01:17;;;;;;;18.52;7.78;;;6.90;98.30;;;;;;9618286;30;20396;-63
2022/12/09 13:06:33;;;;;;;20.33;8.20;;;6.90;98.30;;;;;;9609453;30;20492;-63
2022/12/09 13:11:56;;;;;;;19.30;7.50;;;6.90;98.40;;;;;;9598404;30;20629;-63
2022/12/09 13:16:59;;;;;;;16.60;7.20;;;6.80;98.30;;;;;;9604959;30;20385;-63
2022/12/09 13:22:00;;;;;;;17.15;7.32;;;6.80;98.40;;;;;;9617123;30;20040;-64
2022/12/09 13:27:08;;;;;;;17.92;8.43;;;6.80;98.40;;;;;;9615519;30;20149;-63
2022/12/09 13:32:26;;;;;;;17.55;7.53;;;6.80;98.40;;;;;;9631779;30;20452;-64
2022/12/09 13:37:31;;;;;;;15.82;7.32;;;6.80;98.30;;;;;;9627072;30;20055;-63
2022/12/09 13:47:57;;;;;;;16.42;7.40;;;6.80;98.40;;;;;;9602499;30;20526;-63
2022/12/09 13:53:02;;;;;;;15.05;6.32;;;6.80;98.40;;;;;;9598399;30;20069;-63
2022/12/09 13:58:05;;;;;;;17.35;7.88;;;6.60;98.40;;;;;;9599729;30;20140;-64
2022/12/09 14:03:24;;;;;;;16.52;7.97;;;6.80;98.40;;;;;;9601968;30;20038;-64
2022/12/09 14:08:32;;;;;;;17.35;7.35;;;7.00;98.40;;;;;;9601361;30;20041;-64
2022/12/09 14:13:34;;;;;;;17.53;7.67;;;7.60;98.70;;;;;;9596394;30;20038;-64
2022/12/09 14:18:35;;;;;;;20.48;8.35;;;6.90;98.50;;;;;;9596973;30;20041;-64
2022/12/09 14:23:38;;;;;;;19.63;8.70;;;6.70;98.40;;;;;;9607403;30;20030;-64
2022/12/09 14:28:49;;;;;;;22.65;7.65;;;6.70;98.40;;;;;;9615129;30;20076;-63
2022/12/09 14:33:50;;;;;;;16.92;8.00;;;6.70;98.50;;;;;;9612074;30;20434;-64
2022/12/09 14:38:57;;;;;;;19.05;8.10;;;7.10;98.60;;;;;;9601535;30;20499;-63
2022/12/09 14:44:17;;;;;;;17.33;7.68;;;6.70;98.50;;;;;;9609834;30;20075;-66
2022/12/09 14:49:20;;;;;;;17.33;7.68;;;6.70;98.50;;;;;;9615386;30;20629;-63
2022/12/09 14:54:24;;;;;;;18.67;7.40;;;6.70;98.50;;;;;;9612827;30;20046;-64
2022/12/09 14:59:27;;;;;;;17.42;7.90;;;6.70;98.50;;;;;;9610254;30;20354;-63
2022/12/09 15:04:32;;;;;;;17.15;7.40;;;6.70;98.50;;;;;;9605466;30;20038;-63
2022/12/09 15:09:32;;;;;;;16.63;7.28;;;6.70;98.50;;;;;;9597236;30;20043;-62
2022/12/09 15:14:36;;;;;;;16.63;7.68;;;6.70;98.50;;;;;;9595098;30;20496;-63
2022/12/09 15:19:38;;;;;;;21.15;9.10;;;6.70;98.50;;;;;;9604487;30;20618;-65
2022/12/09 15:24:43;;;;;;;20.88;7.93;;;6.50;98.50;;;;;;9617905;30;20048;-61
2022/12/09 15:29:43;;;;;;;19.63;8.60;;;6.00;98.60;;;;;;9613667;30;20684;-65
2022/12/09 15:34:44;;;;;;;19.92;8.77;;;6.50;98.70;;;;;;9603390;30;20463;-65
2022/12/09 15:39:51;;;;;;;21.40;9.05;;;6.50;98.70;;;;;;9602419;30;20046;-66
2022/12/09 15:45:15;;;;;;;18.30;7.53;;;6.50;98.70;;;;;;9615836;30;20545;-67
2022/12/09 15:50:27;;;;;;;18.23;8.05;;;6.60;98.60;;;;;;9613134;30;20849;-66
2022/12/09 15:55:36;;;;;;;15.82;7.18;;;6.50;98.60;;;;;;9614858;30;20050;-66
2022/12/09 16:00:40;;;;;;;22.13;8.35;;;6.50;98.60;;;;;;9634887;30;20069;-67
2022/12/09 16:05:41;;;;;;;18.48;7.68;;;6.50;98.60;;;;;;9670391;30;20069;-66
2022/12/09 16:10:50;;;;;;;19.00;7.18;;;6.50;98.60;;;;;;9674356;30;20259;-66
2022/12/09 16:15:53;;;;;;;18.48;8.07;;;6.40;98.50;;;;;;9678868;30;20497;-64
2022/12/09 16:21:28;;;;;;;17.25;7.43;;;6.50;98.60;;;;;;9655044;30;20041;-62
2022/12/09 16:26:31;;;;;;;18.67;7.10;;;6.40;98.40;;;;;;9659168;30;20070;-63
2022/12/09 16:31:32;;;;;;;17.58;8.05;;;6.50;98.60;;;;;;9679158;30;20026;-65
2022/12/09 16:36:33;;;;;;;17.23;7.68;;;6.60;98.60;;;;;;9677397;30;20042;-69
2022/12/09 16:41:55;;;;;;;19.88;7.28;;;6.80;98.60;;;;;;9676766;30;20516;-63
2022/12/09 16:47:07;;;;;;;18.13;7.50;;;6.40;98.40;;;;;;9675994;30;20492;-64
2022/12/09 16:52:14;;;;;;;17.73;7.55;;;6.40;98.50;;;;;;9674090;30;20034;-64
2022/12/09 16:57:17;;;;;;;17.73;7.68;;;6.40;98.60;;;;;;9670694;30;20042;-63
2022/12/09 17:02:37;;;;;;;23.70;9.18;;;6.30;98.60;;;;;;9675743;30;20258;-63
2022/12/09 17:07:39;;;;;;;17.90;8.05;;;6.50;98.50;;;;;;9679512;30;20046;-62
2022/12/09 17:12:40;;;;;;;19.08;7.78;;;6.30;98.50;;;;;;9678910;30;20397;-63
2022/12/09 17:17:41;;;;;;;16.90;7.88;;;6.30;98.50;;;;;;9678572;30;20516;-68
2022/12/09 17:22:41;;;;;;;21.23;7.85;;;7.30;98.80;;;;;;9676384;30;20172;-64
2022/12/09 17:27:42;;;;;;;16.90;7.03;;;6.20;98.50;;;;;;9673529;30;20058;-66
2022/12/09 17:32:46;;;;;;;18.52;7.47;;;6.20;98.50;;;;;;9679764;30;20030;-68
2022/12/09 17:37:47;;;;;;;16.98;7.72;;;6.20;98.60;;;;;;9673424;30;20133;-63
2022/12/09 17:42:47;;;;;;;18.55;8.23;;;6.30;98.50;;;;;;9678206;30;20034;-65
2022/12/09 17:47:48;;;;;;;21.95;8.57;;;6.20;98.50;;;;;;9667434;30;20037;-63
2022/12/09 17:52:49;;;;;;;16.60;7.30;;;6.20;98.50;;;;;;9669098;30;20037;-67
2022/12/09 17:57:50;;;;;;;21.95;9.05;;;6.40;98.70;;;;;;9671014;30;20042;-64
2022/12/09 18:02:51;;;;;;;18.70;7.82;;;6.50;98.80;;;;;;9671041;30;20233;-69
2022/12/09 18:07:51;;;;;;;22.67;8.15;;;6.20;98.30;;;;;;9674678;30;20402;-65
2022/12/09 18:12:52;;;;;;;20.75;8.25;;;6.60;98.80;;;;;;9672384;30;20365;-64
2022/12/09 18:17:53;;;;;;;16.90;7.55;;;6.10;98.40;;;;;;9674199;30;20060;-65
2022/12/09 18:22:54;;;;;;;18.10;8.48;;;;;;;;;;9662667;30;20069;-64
2022/12/09 18:27:55;;;;;;;19.00;7.63;;;6.10;98.20;;;;;;9672904;30;20124;-60
2022/12/09 18:32:56;;;;;;;18.80;8.43;;;6.10;98.50;;;;;;9661458;30;20031;-64
2022/12/09 18:37:57;;;;;;;17.98;8.18;;;6.20;98.70;;;;;;9668039;30;20042;-62
2022/12/09 18:42:58;;;;;;;17.65;7.40;;;6.30;99.00;;;;;;9658740;30;20038;-62
2022/12/09 18:47:58;;;;;;;19.60;7.82;;;6.30;98.50;;;;;;9667500;30;20479;-66
2022/12/09 18:52:59;;;;;;;18.77;8.52;;;6.30;98.50;;;;;;9669735;30;20477;-65
2022/12/09 18:58:00;;;;;;;18.02;7.80;;;6.20;98.50;;;;;;9661923;30;20160;-67
2022/12/09 19:03:00;;;;;;;16.40;7.50;;;6.50;98.60;;;;;;9652851;30;20030;-65
2022/12/09 19:08:01;;;;;;;18.60;7.72;;;6.10;98.50;;;;;;9678594;30;20063;-66
2022/12/09 19:13:03;;;;;;;20.20;8.52;;;6.10;98.50;;;;;;9677160;30;20026;-65
2022/12/09 19:18:04;;;;;;;19.02;7.93;;;6.10;98.50;;;;;;9681851;30;20051;-65
2022/12/09 19:23:05;;;;;;;20.02;9.00;;;6.00;98.50;;;;;;9678167;30;20046;-66
2022/12/09 19:28:07;;;;;;;17.70;7.97;;;6.00;98.40;;;;;;9668068;30;20061;-65
2022/12/09 19:33:08;;;;;;;22.23;8.85;;;6.00;98.40;;;;;;9677520;30;20584;-65
2022/12/09 19:38:09;;;;;;;21.98;9.13;;;6.10;98.40;;;;;;9676154;30;20046;-64
2022/12/09 19:43:10;;;;;;;20.67;9.30;;;6.00;98.40;;;;;;9675052;30;20400;-65
2022/12/09 19:48:10;;;;;;;17.75;8.15;;;5.90;98.30;;;;;;9677835;30;20045;-66
2022/12/09 19:53:11;;;;;;;17.90;8.45;;;6.00;98.30;;;;;;9684876;30;20126;-68
2022/12/09 19:58:12;;;;;;;20.00;8.68;;;6.20;98.30;;;;;;9686492;30;20038;-65
2022/12/09 20:03:13;;;;;;;19.45;9.15;;;5.80;98.20;;;;;;9667559;30;20042;-66
2022/12/09 20:08:13;;;;;;;21.35;8.75;;;5.80;98.20;;;;;;9678545;30;20049;-66
2022/12/09 20:13:14;;;;;;;20.25;9.05;;;5.80;98.20;;;;;;9671063;30;20404;-66
2022/12/09 20:18:15;;;;;;;18.90;8.63;;;5.80;98.20;;;;;;9673124;30;20037;-66
2022/12/09 20:23:16;;;;;;;20.52;8.88;;;5.70;98.10;;;;;;9679373;30;20038;-65
2022/12/09 20:28:17;;;;;;;21.83;9.43;;;5.70;98.10;;;;;;9678463;30;20141;-66
2022/12/09 20:33:17;;;;;;;18.10;8.93;;;6.30;98.20;;;;;;9674399;30;20046;-66
2022/12/09 20:38:18;;;;;;;19.38;8.70;;;6.20;98.20;;;;;;9687693;30;20045;-66
2022/12/09 20:43:19;;;;;;;19.67;8.73;;;5.70;98.00;;;;;;9680851;30;20085;-66
2022/12/09 20:48:20;;;;;;;21.23;9.38;;;5.70;98.00;;;;;;9677352;30;20042;-66
2022/12/09 20:53:20;;;;;;;21.83;9.30;;;5.80;98.00;;;;;;9683681;30;20392;-65
2022/12/09 20:58:22;;;;;;;20.17;9.32;;;5.60;97.90;;;;;;9655975;30;20038;-66
2022/12/09 21:03:22;;;;;;;22.98;9.30;;;5.60;97.90;;;;;;9676825;30;20113;-65
2022/12/09 21:08:23;;;;;;;22.58;10.35;;;5.60;97.90;;;;;;9672243;30;20038;-65
2022/12/09 21:13:24;;;;;;;22.75;10.52;;;5.60;97.90;;;;;;9683590;30;20058;-65
2022/12/09 21:18:25;;;;;;;20.35;9.23;;;5.60;97.80;;;;;;9676180;30;20128;-66
2022/12/09 21:23:26;;;;;;;23.02;10.05;;;5.60;97.80;;;;;;9676588;30;20129;-65
2022/12/09 21:28:46;;;;;;;23.45;10.25;;;5.60;97.80;;;;;;9677663;30;20054;-65
2022/12/09 21:33:50;;;;;;;24.20;10.50;;;5.80;97.70;;;;;;9666154;30;20049;-65
2022/12/09 21:38:51;;;;;;;22.13;9.88;;;5.50;97.70;;;;;;9690070;30;20173;-65
2022/12/09 21:43:53;;;;;;;20.58;9.90;;;5.50;97.70;;;;;;9674210;30;20411;-65
2022/12/09 21:48:55;;;;;;;21.83;10.35;;;5.50;97.70;;;;;;9661576;30;20032;-65
2022/12/09 21:53:56;;;;;;;25.52;10.80;;;5.50;97.70;;;;;;9657687;30;20022;-66
2022/12/09 21:58:57;;;;;;;17.35;9.68;;;5.80;97.70;;;;;;9670676;30;20046;-68
2022/12/09 22:04:00;;;;;;;20.58;9.88;;;5.50;97.60;;;;;;9674787;30;20034;-65
2022/12/09 22:09:01;;;;;;;20.88;9.90;;;5.50;97.60;;;;;;9674426;30;20034;-64
2022/12/09 22:14:03;;;;;;;22.02;10.35;;;5.50;97.60;;;;;;9674001;30;20088;-65
2022/12/09 22:19:07;;;;;;;23.75;10.60;;;5.50;97.60;;;;;;9664318;30;20520;-65
2022/12/09 22:24:09;;;;;;;23.05;9.90;;;5.50;97.50;;;;;;9670471;30;20038;-65
2022/12/09 22:29:11;;;;;;;25.98;10.48;;;5.50;97.50;;;;;;9666433;30;20069;-66
2022/12/09 22:34:16;;;;;;;23.55;10.05;;;5.50;97.50;;;;;;9672680;30;20044;-66
2022/12/09 22:39:20;;;;;;;21.98;10.73;;;5.50;97.50;;;;;;9676557;30;20039;-65
2022/12/09 22:44:21;;;;;;;21.77;9.65;;;5.50;97.50;;;;;;9678668;30;20045;-65
2022/12/09 22:49:21;;;;;;;24.48;11.57;;;5.50;97.40;;;;;;9679288;30;20073;-65
2022/12/09 22:54:22;;;;;;;22.48;11.20;;;5.50;97.40;;;;;;9677725;30;20038;-66
2022/12/09 22:59:23;;;;;;;27.33;11.10;;;6.20;97.60;;;;;;9664414;30;20065;-65
2022/12/09 23:04:24;;;;;;;22.60;10.93;;;5.40;97.40;;;;;;9657519;30;20144;-65
2022/12/09 23:09:24;;;;;;;22.63;10.25;;;5.40;97.40;;;;;;9671211;30;20103;-65
2022/12/09 23:14:25;;;;;;;27.77;12.18;;;5.80;97.50;;;;;;9673158;30;20038;-65
2022/12/09 23:19:26;;;;;;;25.90;11.85;;;5.70;97.50;;;;;;9686909;30;20045;-65
2022/12/09 23:24:27;;;;;;;24.83;11.43;;;5.40;97.40;;;;;;9675202;30;20070;-65
2022/12/09 23:29:27;;;;;;;25.95;11.60;;;5.40;97.40;;;;;;9674832;30;20119;-65
2022/12/09 23:34:28;;;;;;;27.52;10.55;;;5.40;97.40;;;;;;9677397;30;20037;-65
2022/12/09 23:39:29;;;;;;;26.13;12.20;;;5.40;97.40;;;;;;9670998;30;20046;-64
2022/12/09 23:44:29;;;;;;;28.02;12.52;;;5.40;97.40;;;;;;9669273;30;20041;-66
2022/12/09 23:49:30;;;;;;;25.20;11.82;;;5.80;97.50;;;;;;9659248;30;20045;-66
2022/12/09 23:54:32;;;;;;;26.80;12.52;;;5.30;97.30;;;;;;9673043;30;20045;-66
2022/12/09 23:59:32;;;;;;;27.27;12.40;;;5.40;97.30;;;;;;9705914;25;20563;-65
